createdAt,value
2023-03-02T00:01:52.589Z,100.00
2023-03-02T00:04:23.035Z,100.00
2023-03-02T00:06:52.678Z,100.00
2023-03-02T00:09:21.573Z,100.00
2023-03-02T00:11:51.537Z,100.00
2023-03-02T00:14:20.425Z,100.00
2023-03-02T00:16:49.301Z,100.00
2023-03-02T00:19:18.261Z,100.00
2023-03-02T00:21:47.146Z,100.00
2023-03-02T00:24:16.178Z,100.00
2023-03-02T00:26:45.703Z,100.00
2023-03-02T00:29:15.214Z,100.00
2023-03-02T00:31:44.074Z,100.00
2023-03-02T00:34:12.941Z,100.00
2023-03-02T00:36:42.059Z,100.00
2023-03-02T00:39:11.195Z,100.00
2023-03-02T00:41:40.094Z,100.00
2023-03-02T00:44:08.929Z,100.00
2023-03-02T00:46:40.213Z,100.00
2023-03-02T00:49:09.114Z,100.00
2023-03-02T00:51:37.942Z,100.00
2023-03-02T00:54:06.933Z,100.00
2023-03-02T00:56:36.252Z,100.00
2023-03-02T00:59:11.220Z,100.00
2023-03-02T01:01:40.329Z,100.00
2023-03-02T01:04:09.669Z,100.00
2023-03-02T01:06:47.286Z,100.00
2023-03-02T01:09:16.205Z,100.00
2023-03-02T01:11:45.017Z,100.00
2023-03-02T01:14:14.140Z,100.00
2023-03-02T01:16:45.307Z,100.00
2023-03-02T01:19:14.468Z,100.00
2023-03-02T01:21:44.388Z,100.00
2023-03-02T01:24:13.206Z,100.00
2023-03-02T01:26:42.039Z,100.00
2023-03-02T01:29:11.625Z,100.00
2023-03-02T01:31:40.718Z,100.00
2023-03-02T01:34:09.827Z,100.00
2023-03-02T01:36:38.717Z,100.00
2023-03-02T01:39:07.587Z,100.00
2023-03-02T01:41:36.499Z,100.00
2023-03-02T01:44:05.732Z,100.00
2023-03-02T01:46:35.424Z,100.00
2023-03-02T01:49:07.002Z,100.00
2023-03-02T01:51:44.603Z,100.00
2023-03-02T01:54:23.113Z,100.00
2023-03-02T01:56:58.359Z,100.00
2023-03-02T01:59:36.935Z,100.00
2023-03-02T02:02:08.953Z,100.00
2023-03-02T02:04:39.821Z,100.00
2023-03-02T02:07:09.654Z,100.00
2023-03-02T02:09:41.433Z,100.00
2023-03-02T02:12:14.813Z,100.00
2023-03-02T02:14:44.657Z,100.00
2023-03-02T02:17:14.078Z,100.00
2023-03-02T02:19:48.361Z,100.00
2023-03-02T02:22:22.594Z,100.00
2023-03-02T02:24:55.165Z,100.00
2023-03-02T02:27:29.794Z,100.00
2023-03-02T02:29:59.416Z,100.00
2023-03-02T02:32:30.366Z,100.00
2023-03-02T02:35:01.520Z,100.00
2023-03-02T02:37:34.090Z,100.00
2023-03-02T02:40:07.275Z,100.00
2023-03-02T02:42:39.240Z,100.00
2023-03-02T02:45:18.543Z,100.00
2023-03-02T02:47:47.723Z,100.00
2023-03-02T02:50:18.798Z,100.00
2023-03-02T02:52:49.836Z,100.00
2023-03-02T02:55:21.853Z,100.00
2023-03-02T02:57:52.320Z,100.00
2023-03-02T03:00:22.912Z,100.00
2023-03-02T03:02:54.506Z,100.00
2023-03-02T03:05:23.406Z,100.00
2023-03-02T03:07:53.291Z,100.00
2023-03-02T03:10:27.332Z,100.00
2023-03-02T03:12:56.477Z,100.00
2023-03-02T03:15:25.352Z,100.00
2023-03-02T03:17:56.942Z,100.00
2023-03-02T03:20:26.949Z,100.00
2023-03-02T03:22:59.386Z,100.00
2023-03-02T03:25:29.291Z,100.00
2023-03-02T03:27:58.407Z,100.00
2023-03-02T03:30:27.210Z,100.00
2023-03-02T03:32:56.107Z,100.00
2023-03-02T03:35:25.070Z,100.00
2023-03-02T03:37:54.789Z,100.00
2023-03-02T03:40:23.741Z,100.00
2023-03-02T03:42:53.846Z,100.00
2023-03-02T03:45:23.244Z,100.00
2023-03-02T03:47:52.141Z,100.00
2023-03-02T03:50:21.205Z,100.00
2023-03-02T03:52:50.518Z,100.00
2023-03-02T03:55:23.748Z,100.00
2023-03-02T03:57:55.177Z,100.00
2023-03-02T04:00:24.525Z,100.00
2023-03-02T04:03:00.602Z,100.00
2023-03-02T04:05:31.752Z,100.00
2023-03-02T04:08:02.686Z,100.00
2023-03-02T04:10:32.580Z,100.00
2023-03-02T04:13:01.503Z,100.00
2023-03-02T04:15:33.528Z,100.00
2023-03-02T04:18:03.250Z,100.00
2023-03-02T04:20:33.412Z,100.00
2023-03-02T04:23:02.313Z,100.00
2023-03-02T04:25:32.072Z,100.00
2023-03-02T04:28:06.449Z,100.00
2023-03-02T04:30:38.764Z,100.00
2023-03-02T04:33:07.898Z,100.00
2023-03-02T04:35:37.605Z,100.00
2023-03-02T04:38:06.669Z,100.00
2023-03-02T04:40:36.081Z,100.00
2023-03-02T04:43:04.910Z,100.00
2023-03-02T04:45:33.843Z,100.00
2023-03-02T04:48:02.687Z,100.00
2023-03-02T04:50:31.533Z,100.00
2023-03-02T04:53:00.482Z,100.00
2023-03-02T04:55:29.424Z,100.00
2023-03-02T04:57:58.300Z,100.00
2023-03-02T05:00:28.856Z,100.00
2023-03-02T05:02:58.391Z,100.00
2023-03-02T05:05:27.721Z,100.00
2023-03-02T05:07:58.497Z,100.00
2023-03-02T05:10:28.505Z,100.00
2023-03-02T05:13:02.253Z,100.00
2023-03-02T05:15:32.301Z,100.00
2023-03-02T05:18:01.494Z,100.00
2023-03-02T05:20:31.654Z,100.00
2023-03-02T05:23:02.055Z,100.00
2023-03-02T05:25:32.404Z,100.00
2023-03-02T05:28:01.919Z,100.00
2023-03-02T05:30:32.740Z,100.00
2023-03-02T05:33:01.592Z,100.00
2023-03-02T05:35:30.586Z,100.00
2023-03-02T05:37:59.511Z,100.00
2023-03-02T05:40:28.414Z,100.00
2023-03-02T05:42:57.208Z,100.00
2023-03-02T05:45:28.222Z,100.00
2023-03-02T05:47:57.096Z,100.00
2023-03-02T05:50:26.309Z,100.00
2023-03-02T05:52:55.358Z,100.00
2023-03-02T05:55:24.632Z,100.00
2023-03-02T05:57:53.607Z,100.00
2023-03-02T06:00:23.010Z,100.00
2023-03-02T06:02:51.866Z,100.00
2023-03-02T06:05:22.796Z,100.00
2023-03-02T06:07:51.697Z,100.00
2023-03-02T06:10:20.554Z,100.00
2023-03-02T06:12:49.313Z,100.00
2023-03-02T06:15:18.254Z,100.00
2023-03-02T06:17:47.043Z,100.00
2023-03-02T06:20:16.449Z,100.00
2023-03-02T06:22:46.129Z,100.00
2023-03-02T06:25:15.887Z,100.00
2023-03-02T06:27:44.928Z,100.00
2023-03-02T06:30:15.673Z,100.00
2023-03-02T06:32:44.653Z,100.00
2023-03-02T06:35:14.009Z,100.00
2023-03-02T06:37:44.253Z,100.00
2023-03-02T06:40:14.498Z,100.00
2023-03-02T06:42:43.735Z,100.00
2023-03-02T06:45:12.909Z,100.00
2023-03-02T06:47:41.727Z,100.00
2023-03-02T06:50:13.807Z,100.00
2023-03-02T06:52:42.684Z,100.00
2023-03-02T06:55:11.762Z,100.00
2023-03-02T06:57:40.633Z,100.00
2023-03-02T07:00:17.245Z,100.00
2023-03-02T07:02:46.260Z,100.00
2023-03-02T07:05:15.099Z,100.00
2023-03-02T07:07:44.002Z,100.00
2023-03-02T07:10:13.430Z,100.00
2023-03-02T07:12:43.164Z,100.00
2023-03-02T07:15:14.347Z,100.00
2023-03-02T07:17:44.448Z,100.00
2023-03-02T07:20:14.752Z,100.00
2023-03-02T07:22:44.330Z,100.00
2023-03-02T07:25:13.284Z,100.00
2023-03-02T07:27:42.658Z,100.00
2023-03-02T07:30:14.677Z,100.00
2023-03-02T07:32:43.653Z,100.00
2023-03-02T07:35:12.500Z,100.00
2023-03-02T07:37:41.815Z,100.00
2023-03-02T07:40:12.559Z,100.00
2023-03-02T07:42:41.580Z,100.00
2023-03-02T07:45:22.842Z,100.00
2023-03-02T07:48:12.091Z,100.00
2023-03-02T07:50:49.691Z,100.00
2023-03-02T07:53:19.942Z,100.00
2023-03-02T07:55:48.777Z,100.00
2023-03-02T07:58:17.679Z,100.00
2023-03-02T08:00:46.502Z,100.00
2023-03-02T08:03:15.375Z,100.00
2023-03-02T08:05:44.270Z,100.00
2023-03-02T08:08:13.190Z,100.00
2023-03-02T08:10:42.047Z,100.00
2023-03-02T08:13:10.874Z,100.00
2023-03-02T08:15:42.320Z,100.00
2023-03-02T08:18:11.525Z,100.00
2023-03-02T08:20:40.490Z,100.00
2023-03-02T08:23:09.385Z,100.00
2023-03-02T08:25:38.851Z,100.00
2023-03-02T08:28:07.755Z,100.00
2023-03-02T08:30:36.631Z,100.00
2023-03-02T08:33:07.227Z,100.00
2023-03-02T08:35:36.279Z,100.00
2023-03-02T08:38:05.132Z,100.00
2023-03-02T08:40:34.941Z,100.00
2023-03-02T08:43:03.827Z,100.00
2023-03-02T08:45:32.717Z,100.00
2023-03-02T08:48:01.602Z,100.00
2023-03-02T08:50:30.475Z,100.00
2023-03-02T08:52:59.392Z,100.00
2023-03-02T08:55:28.416Z,100.00
2023-03-02T08:57:58.432Z,100.00
2023-03-02T09:00:30.643Z,100.00
2023-03-02T09:03:02.328Z,100.00
2023-03-02T09:05:31.350Z,100.00
2023-03-02T09:08:00.684Z,100.00
2023-03-02T09:10:29.531Z,100.00
2023-03-02T09:12:58.729Z,100.00
2023-03-02T09:15:27.602Z,100.00
2023-03-02T09:17:56.503Z,100.00
2023-03-02T09:20:25.556Z,100.00
2023-03-02T09:22:54.442Z,100.00
2023-03-02T09:25:23.387Z,100.00
2023-03-02T09:27:52.242Z,100.00
2023-03-02T09:30:21.265Z,100.00
2023-03-02T09:32:50.328Z,100.00
2023-03-02T09:35:19.485Z,100.00
2023-03-02T09:37:48.456Z,100.00
2023-03-02T09:40:21.559Z,100.00
2023-03-02T09:43:12.716Z,100.00
2023-03-02T09:45:56.985Z,100.00
2023-03-02T09:48:33.216Z,100.00
2023-03-02T09:51:08.197Z,100.00
2023-03-02T09:53:41.211Z,100.00
2023-03-02T09:56:14.576Z,100.00
2023-03-02T09:58:46.649Z,100.00
2023-03-02T10:01:17.386Z,100.00
2023-03-02T10:03:51.300Z,100.00
2023-03-02T10:06:22.185Z,100.00
2023-03-02T10:08:51.628Z,100.00
2023-03-02T10:11:28.097Z,100.00
2023-03-02T10:13:59.812Z,100.00
2023-03-02T10:16:34.067Z,100.00
2023-03-02T10:19:07.982Z,100.00
2023-03-02T10:21:39.201Z,100.00
2023-03-02T10:24:15.857Z,100.00
2023-03-02T10:26:46.640Z,100.00
2023-03-02T10:29:38.436Z,100.00
2023-03-02T10:32:16.315Z,100.00
2023-03-02T10:34:48.080Z,100.00
2023-03-02T10:37:18.532Z,100.00
2023-03-02T10:39:47.563Z,100.00
2023-03-02T10:42:18.950Z,100.00
2023-03-02T10:44:51.347Z,100.00
2023-03-02T10:47:24.768Z,100.00
2023-03-02T10:49:54.274Z,100.00
2023-03-02T10:52:24.817Z,100.00
2023-03-02T10:55:04.395Z,100.00
2023-03-02T10:57:36.255Z,100.00
2023-03-02T11:00:06.829Z,100.00
2023-03-02T11:02:37.771Z,100.00
2023-03-02T11:05:20.258Z,100.00
2023-03-02T11:07:55.104Z,100.00
2023-03-02T11:10:28.441Z,100.00
2023-03-02T11:12:58.285Z,100.00
2023-03-02T11:15:28.916Z,100.00
2023-03-02T11:18:02.975Z,100.00
2023-03-02T11:20:34.318Z,100.00
2023-03-02T11:23:17.438Z,100.00
2023-03-02T11:25:52.477Z,100.00
2023-03-02T11:28:37.518Z,100.00
2023-03-02T11:31:10.416Z,100.00
2023-03-02T11:33:44.620Z,100.00
2023-03-02T11:36:17.057Z,100.00
2023-03-02T11:38:50.889Z,100.00
2023-03-02T11:41:30.760Z,100.00
2023-03-02T11:44:01.524Z,100.00
2023-03-02T11:46:34.902Z,100.00
2023-03-02T11:49:05.977Z,100.00
2023-03-02T11:51:50.043Z,100.00
2023-03-02T11:54:34.040Z,100.00
2023-03-02T11:57:03.010Z,100.00
2023-03-02T11:59:32.828Z,100.00
2023-03-02T12:02:02.132Z,100.00
2023-03-02T12:04:33.577Z,100.00
2023-03-02T12:07:04.184Z,100.00
2023-03-02T12:09:38.383Z,100.00
2023-03-02T12:12:24.687Z,100.00
2023-03-02T12:14:53.894Z,100.00
2023-03-02T12:17:31.712Z,100.00
2023-03-02T12:20:11.486Z,100.00
2023-03-02T12:22:41.678Z,100.00
2023-03-02T12:28:05.167Z,100.00
2023-03-02T12:30:34.270Z,100.00
2023-03-02T12:33:17.850Z,100.00
2023-03-02T12:35:48.536Z,100.00
2023-03-02T12:38:23.811Z,100.00
2023-03-02T12:41:00.231Z,100.00
2023-03-02T12:43:31.391Z,100.00
2023-03-02T12:46:25.246Z,100.00
2023-03-02T12:48:58.650Z,100.00
2023-03-02T12:51:28.559Z,100.00
2023-03-02T12:54:09.124Z,100.00
2023-03-02T12:56:39.226Z,100.00
2023-03-02T12:59:08.158Z,100.00
2023-03-02T13:01:38.977Z,100.00
2023-03-02T13:04:08.253Z,97.03
2023-03-02T13:06:39.571Z,90.05
2023-03-02T13:09:15.130Z,88.08
2023-03-02T13:11:45.197Z,80.30
2023-03-02T13:14:23.160Z,77.96
2023-03-02T13:17:03.349Z,78.06
2023-03-02T13:19:34.215Z,76.31
2023-03-02T13:22:10.267Z,76.43
2023-03-02T13:24:47.741Z,74.23
2023-03-02T13:27:20.740Z,72.54
2023-03-02T13:29:52.387Z,73.22
2023-03-02T13:32:23.147Z,73.84
2023-03-02T13:34:53.347Z,74.82
2023-03-02T13:37:25.553Z,70.97
2023-03-02T13:39:58.678Z,68.94
2023-03-02T13:42:38.084Z,67.52
2023-03-02T13:45:25.138Z,63.26
2023-03-02T13:47:54.791Z,62.79
2023-03-02T13:50:26.238Z,63.81
2023-03-02T13:52:56.917Z,62.47
2023-03-02T13:55:27.388Z,64.20
2023-03-02T13:57:57.598Z,59.54
2023-03-02T14:00:31.852Z,57.43
2023-03-02T14:03:00.865Z,56.28
2023-03-02T14:05:35.168Z,55.81
2023-03-02T14:08:05.845Z,56.27
2023-03-02T14:10:35.006Z,55.43
2023-03-02T14:13:07.379Z,53.60
2023-03-02T14:15:38.026Z,55.76
2023-03-02T14:18:11.906Z,55.16
2023-03-02T14:20:40.899Z,55.82
2023-03-02T14:23:10.949Z,52.94
2023-03-02T14:25:44.045Z,52.12
2023-03-02T14:28:18.461Z,56.76
2023-03-02T14:30:59.239Z,59.16
2023-03-02T14:33:28.343Z,62.72
2023-03-02T14:36:02.554Z,68.25
2023-03-02T14:38:31.830Z,69.41
2023-03-02T14:41:02.142Z,69.02
2023-03-02T14:43:33.011Z,70.54
2023-03-02T14:46:01.889Z,71.70
2023-03-02T14:48:34.594Z,75.57
2023-03-02T14:51:04.292Z,75.82
2023-03-02T14:53:35.302Z,76.57
2023-03-02T14:56:04.474Z,78.59
2023-03-02T14:58:34.734Z,79.98
2023-03-02T15:01:04.531Z,81.95
2023-03-02T15:03:39.813Z,83.13
2023-03-02T15:06:18.151Z,84.20
2023-03-02T15:08:47.014Z,85.99
2023-03-02T15:11:15.950Z,86.97
2023-03-02T15:13:46.169Z,88.54
2023-03-02T15:16:19.609Z,89.83
2023-03-02T15:18:50.938Z,90.93
2023-03-02T15:21:23.758Z,91.60
2023-03-02T15:23:52.713Z,92.64
2023-03-02T15:26:24.000Z,94.24
2023-03-02T15:29:12.478Z,95.13
2023-03-02T15:31:41.490Z,96.12
2023-03-02T15:34:11.368Z,97.64
2023-03-02T15:36:42.807Z,98.57
2023-03-02T15:39:14.059Z,99.94
2023-03-02T15:41:43.115Z,100.00
2023-03-02T15:44:16.756Z,100.00
2023-03-02T15:46:46.066Z,100.00
2023-03-02T15:49:17.365Z,100.00
2023-03-02T15:51:46.260Z,100.00
2023-03-02T15:54:15.141Z,100.00
2023-03-02T15:56:45.236Z,100.00
2023-03-02T15:59:14.209Z,100.00
2023-03-02T16:01:43.149Z,100.00
2023-03-02T16:04:15.928Z,100.00
2023-03-02T16:06:47.140Z,100.00
2023-03-02T16:09:16.506Z,100.00
2023-03-02T16:11:49.277Z,100.00
2023-03-02T16:14:18.834Z,100.00
2023-03-02T16:16:47.868Z,100.00
2023-03-02T16:19:19.470Z,100.00
2023-03-02T16:21:48.700Z,100.00
2023-03-02T16:24:17.693Z,100.00
2023-03-02T16:27:16.137Z,100.00
2023-03-02T16:29:46.201Z,100.00
2023-03-02T16:32:15.430Z,100.00
2023-03-02T16:34:45.105Z,100.00
2023-03-02T16:37:14.166Z,100.00
2023-03-02T16:39:43.139Z,100.00
2023-03-02T16:42:12.782Z,100.00
2023-03-02T16:44:42.698Z,100.00
2023-03-02T16:47:11.697Z,100.00
2023-03-02T16:49:40.616Z,100.00
2023-03-02T16:52:09.491Z,100.00
2023-03-02T16:54:38.358Z,100.00
2023-03-02T16:57:10.396Z,100.00
2023-03-02T16:59:42.187Z,100.00
2023-03-02T17:02:12.271Z,100.00
2023-03-02T17:04:42.537Z,100.00
2023-03-02T17:07:11.638Z,100.00
2023-03-02T17:09:55.201Z,100.00
2023-03-02T17:12:24.204Z,100.00
2023-03-02T17:14:53.016Z,100.00
2023-03-02T17:17:21.820Z,100.00
2023-03-02T17:19:50.706Z,100.00
2023-03-02T17:22:19.576Z,100.00
2023-03-02T17:24:50.918Z,100.00
2023-03-02T17:27:25.214Z,100.00
2023-03-02T17:29:54.787Z,100.00
2023-03-02T17:32:24.745Z,100.00
2023-03-02T17:34:53.779Z,100.00
2023-03-02T17:37:22.716Z,100.00
2023-03-02T17:39:51.744Z,100.00
2023-03-02T17:42:20.565Z,100.00
2023-03-02T17:44:49.427Z,100.00
2023-03-02T17:47:18.526Z,100.00
2023-03-02T17:49:47.376Z,100.00
2023-03-02T17:52:17.127Z,100.00
2023-03-02T17:54:46.088Z,100.00
2023-03-02T17:57:17.732Z,100.00
2023-03-02T17:59:46.928Z,100.00
2023-03-02T18:02:15.850Z,100.00
2023-03-02T18:04:45.673Z,100.00
2023-03-02T18:07:15.233Z,100.00
2023-03-02T18:09:44.516Z,100.00
2023-03-02T18:12:13.385Z,100.00
2023-03-02T18:14:42.300Z,100.00
2023-03-02T18:17:12.461Z,100.00
2023-03-02T18:19:41.357Z,100.00
2023-03-02T18:22:11.522Z,100.00
2023-03-02T18:24:40.379Z,100.00
2023-03-02T18:27:09.299Z,100.00
2023-03-02T18:29:38.974Z,100.00
2023-03-02T18:32:08.046Z,100.00
2023-03-02T18:34:36.897Z,100.00
2023-03-02T18:37:05.758Z,100.00
2023-03-02T18:39:35.168Z,100.00
2023-03-02T18:42:04.180Z,100.00
2023-03-02T18:44:33.524Z,100.00
2023-03-02T18:47:02.411Z,100.00
2023-03-02T18:49:31.262Z,100.00
2023-03-02T18:52:05.763Z,100.00
2023-03-02T18:54:42.056Z,100.00
2023-03-02T18:57:11.813Z,100.00
2023-03-02T18:59:41.213Z,100.00
2023-03-02T19:02:12.764Z,100.00
2023-03-02T19:04:42.663Z,100.00
2023-03-02T19:07:11.575Z,100.00
2023-03-02T19:09:40.451Z,100.00
2023-03-02T19:12:09.360Z,100.00
2023-03-02T19:14:39.539Z,100.00
2023-03-02T19:17:08.365Z,100.00
2023-03-02T19:19:37.305Z,100.00
2023-03-02T19:22:13.524Z,100.00
2023-03-02T19:24:44.360Z,100.00
2023-03-02T19:27:13.523Z,100.00
2023-03-02T19:29:42.956Z,100.00
2023-03-02T19:32:15.326Z,100.00
2023-03-02T19:34:44.443Z,100.00
2023-03-02T19:37:13.614Z,100.00
2023-03-02T19:39:42.883Z,100.00
2023-03-02T19:42:11.770Z,100.00
2023-03-02T19:44:40.770Z,100.00
2023-03-02T19:47:09.684Z,100.00
2023-03-02T19:49:38.612Z,100.00
2023-03-02T19:52:09.271Z,100.00
2023-03-02T19:54:38.122Z,100.00
2023-03-02T19:57:08.084Z,100.00
2023-03-02T19:59:39.600Z,100.00
2023-03-02T20:02:08.882Z,100.00
2023-03-02T20:04:37.785Z,100.00
2023-03-02T20:07:06.633Z,100.00
2023-03-02T20:09:35.684Z,100.00
2023-03-02T20:12:06.177Z,100.00
2023-03-02T20:14:36.314Z,100.00
2023-03-02T20:17:05.529Z,100.00
2023-03-02T20:19:34.414Z,100.00
2023-03-02T20:22:03.710Z,100.00
2023-03-02T20:24:32.749Z,100.00
2023-03-02T20:27:01.834Z,100.00
2023-03-02T20:29:31.031Z,100.00
2023-03-02T20:32:00.279Z,100.00
2023-03-02T20:34:29.242Z,100.00
2023-03-02T20:36:58.108Z,100.00
2023-03-02T20:39:28.299Z,100.00
2023-03-02T20:41:57.476Z,100.00
2023-03-02T20:44:27.450Z,100.00
2023-03-02T20:46:57.847Z,100.00
2023-03-02T20:49:27.944Z,100.00
2023-03-02T20:51:58.358Z,100.00
2023-03-02T20:54:28.942Z,100.00
2023-03-02T20:56:58.154Z,100.00
2023-03-02T20:59:27.927Z,100.00
2023-03-02T21:01:56.813Z,100.00
2023-03-02T21:04:25.652Z,100.00
2023-03-02T21:06:55.165Z,100.00
2023-03-02T21:09:24.096Z,100.00
2023-03-02T21:11:52.956Z,100.00
2023-03-02T21:14:22.356Z,100.00
2023-03-02T21:16:51.248Z,100.00
2023-03-02T21:19:20.144Z,100.00
2023-03-02T21:21:48.944Z,100.00
2023-03-02T21:24:18.292Z,100.00
2023-03-02T21:26:47.807Z,100.00
2023-03-02T21:29:17.468Z,100.00
2023-03-02T21:31:47.847Z,100.00
2023-03-02T21:34:18.888Z,100.00
2023-03-02T21:36:47.718Z,100.00
2023-03-02T21:39:16.612Z,100.00
2023-03-02T21:41:45.527Z,100.00
2023-03-02T21:44:14.518Z,100.00
2023-03-02T21:46:43.592Z,100.00
2023-03-02T21:49:12.589Z,100.00
2023-03-02T21:51:41.407Z,100.00
2023-03-02T21:54:10.220Z,100.00
2023-03-02T21:56:39.086Z,100.00
2023-03-02T21:59:07.955Z,100.00
2023-03-02T22:01:36.849Z,100.00
2023-03-02T22:04:06.249Z,100.00
2023-03-02T22:06:35.630Z,100.00
2023-03-02T22:09:04.903Z,100.00
2023-03-02T22:11:34.553Z,100.00
2023-03-02T22:14:04.609Z,100.00
2023-03-02T22:16:36.745Z,100.00
2023-03-02T22:19:08.919Z,100.00
2023-03-02T22:21:38.962Z,100.00
2023-03-02T22:24:19.759Z,100.00
2023-03-02T22:26:50.760Z,100.00
2023-03-02T22:29:24.114Z,100.00
2023-03-02T22:31:56.514Z,100.00
2023-03-02T22:34:26.941Z,100.00
2023-03-02T22:36:59.803Z,100.00
2023-03-02T22:39:31.851Z,100.00
2023-03-02T22:42:06.341Z,100.00
2023-03-02T22:44:35.311Z,100.00
2023-03-02T22:47:07.951Z,100.00
2023-03-02T22:49:36.800Z,100.00
2023-03-02T22:52:12.324Z,100.00
2023-03-02T22:54:41.170Z,100.00
2023-03-02T22:57:18.114Z,100.00
2023-03-02T22:59:47.009Z,100.00
2023-03-02T23:02:18.614Z,100.00
2023-03-02T23:04:48.408Z,100.00
2023-03-02T23:07:19.499Z,100.00
2023-03-02T23:09:49.043Z,100.00
2023-03-02T23:12:19.883Z,100.00
2023-03-02T23:14:50.353Z,100.00
2023-03-02T23:17:22.106Z,100.00
2023-03-02T23:19:51.444Z,100.00
2023-03-02T23:22:20.303Z,100.00
2023-03-02T23:24:49.179Z,100.00
2023-03-02T23:27:18.017Z,100.00
2023-03-02T23:29:46.896Z,100.00
2023-03-02T23:32:18.316Z,100.00
2023-03-02T23:34:48.213Z,100.00
2023-03-02T23:37:17.157Z,100.00
2023-03-02T23:39:46.267Z,100.00
2023-03-02T23:42:15.205Z,100.00
2023-03-02T23:44:45.232Z,100.00
2023-03-02T23:47:14.220Z,100.00
2023-03-02T23:49:43.037Z,100.00
2023-03-02T23:52:11.947Z,100.00
2023-03-02T23:54:42.085Z,100.00
2023-03-02T23:57:10.867Z,100.00
2023-03-02T23:59:39.727Z,100.00
